Terminal Aerodrome Forecast
Issued by NWS

Home | Current Version | Previous Version | Text Only | Print | Product List | Glossary On
Versions: 1 2 3 4 5 6 7 8 9 10 11 12 13 14 15 16 17 18 19 20 21 22 23 24 25 26 27 28 29 30 31 32 33
000
FTUS41 KBOX 271120
TAFBED
TAF
KBED 271120Z 2712/2812 34004KT P6SM -RA OVC015
     FM271600 VRB03KT P6SM OVC020
     FM280000 00000KT P6SM OVC030
     FM280500 36005KT P6SM OVC020
     FM281000 36006KT P6SM OVC010=

USA.gov is the U.S. government's official web portal to all federal, state and local government web resources and services.